sensor_id;sensor_type;location;lat;lon;timestamp;pressure;altitude;pressure_sealevel;temperature;humidity
72612;BME280;60655;52.182;4.474;2023-08-01T00:00:02;99837.28;;;17.42;90.14
72612;BME280;60655;52.182;4.474;2023-08-01T00:02:06;99823.41;;;17.35;90.67
72612;BME280;60655;52.182;4.474;2023-08-01T00:04:07;99806.28;;;17.31;90.98
72612;BME280;60655;52.182;4.474;2023-08-01T00:06:08;99815.63;;;17.34;90.89
72612;BME280;60655;52.182;4.474;2023-08-01T00:08:08;99818.03;;;17.35;90.87
72612;BME280;60655;52.182;4.474;2023-08-01T00:10:10;99813.13;;;17.42;90.75
72612;BME280;60655;52.182;4.474;2023-08-01T00:12:11;99813.97;;;17.38;91.13
72612;BME280;60655;52.182;4.474;2023-08-01T00:14:11;99809.41;;;17.38;91.70
72612;BME280;60655;52.182;4.474;2023-08-01T00:16:12;99806.72;;;17.38;92.02
72612;BME280;60655;52.182;4.474;2023-08-01T00:18:13;99800.41;;;17.29;92.47
72612;BME280;60655;52.182;4.474;2023-08-01T00:20:14;99796.63;;;17.30;92.90
72612;BME280;60655;52.182;4.474;2023-08-01T00:22:15;99799.84;;;17.32;92.52
72612;BME280;60655;52.182;4.474;2023-08-01T00:24:16;99799.38;;;17.25;92.16
72612;BME280;60655;52.182;4.474;2023-08-01T00:26:17;99798.28;;;17.26;92.02
72612;BME280;60655;52.182;4.474;2023-08-01T00:28:18;99794.00;;;17.25;92.05
72612;BME280;60655;52.182;4.474;2023-08-01T00:30:19;99791.31;;;17.25;91.16
72612;BME280;60655;52.182;4.474;2023-08-01T00:32:20;99804.03;;;17.38;91.14
72612;BME280;60655;52.182;4.474;2023-08-01T00:34:22;99794.28;;;17.24;91.40
72612;BME280;60655;52.182;4.474;2023-08-01T00:36:23;99790.75;;;17.28;90.63
72612;BME280;60655;52.182;4.474;2023-08-01T00:38:24;99785.16;;;17.25;91.25
72612;BME280;60655;52.182;4.474;2023-08-01T00:40:32;99779.72;;;17.30;90.86
72612;BME280;60655;52.182;4.474;2023-08-01T00:42:36;99779.94;;;17.33;91.59
72612;BME280;60655;52.182;4.474;2023-08-01T00:44:37;99782.34;;;17.35;90.81
72612;BME280;60655;52.182;4.474;2023-08-01T00:46:38;99771.03;;;17.38;90.32
72612;BME280;60655;52.182;4.474;2023-08-01T00:48:40;99774.78;;;17.37;90.13
72612;BME280;60655;52.182;4.474;2023-08-01T00:50:41;99771.03;;;17.38;90.46
72612;BME280;60655;52.182;4.474;2023-08-01T00:52:42;99764.28;;;17.40;90.55
72612;BME280;60655;52.182;4.474;2023-08-01T00:54:43;99774.44;;;17.43;90.89
72612;BME280;60655;52.182;4.474;2023-08-01T00:56:44;99761.66;;;17.35;90.65
72612;BME280;60655;52.182;4.474;2023-08-01T00:58:45;99756.28;;;17.35;91.10
72612;BME280;60655;52.182;4.474;2023-08-01T01:00:46;99761.38;;;17.37;89.65
72612;BME280;60655;52.182;4.474;2023-08-01T01:02:48;99766.13;;;17.45;89.20
72612;BME280;60655;52.182;4.474;2023-08-01T01:04:49;99742.88;;;17.35;89.01
72612;BME280;60655;52.182;4.474;2023-08-01T01:07:08;99763.13;;;17.46;88.91
72612;BME280;60655;52.182;4.474;2023-08-01T01:09:19;99759.88;;;17.49;88.94
72612;BME280;60655;52.182;4.474;2023-08-01T01:11:20;99760.41;;;17.51;88.75
72612;BME280;60655;52.182;4.474;2023-08-01T01:13:21;99757.13;;;17.54;89.70
72612;BME280;60655;52.182;4.474;2023-08-01T01:15:22;99766.00;;;17.55;90.31
72612;BME280;60655;52.182;4.474;2023-08-01T01:17:23;99764.09;;;17.55;91.32
72612;BME280;60655;52.182;4.474;2023-08-01T01:19:24;99760.84;;;17.35;90.16
72612;BME280;60655;52.182;4.474;2023-08-01T01:21:25;99774.69;;;17.23;86.48
72612;BME280;60655;52.182;4.474;2023-08-01T01:23:26;99773.66;;;16.95;89.54
72612;BME280;60655;52.182;4.474;2023-08-01T01:25:28;99766.03;;;16.78;90.56
72612;BME280;60655;52.182;4.474;2023-08-01T01:27:29;99767.78;;;16.64;94.13
72612;BME280;60655;52.182;4.474;2023-08-01T01:29:32;99756.25;;;16.64;93.63
72612;BME280;60655;52.182;4.474;2023-08-01T01:31:34;99763.75;;;16.62;94.95
72612;BME280;60655;52.182;4.474;2023-08-01T01:33:36;99770.53;;;16.49;97.04
72612;BME280;60655;52.182;4.474;2023-08-01T01:35:37;99761.53;;;16.40;96.34
72612;BME280;60655;52.182;4.474;2023-08-01T01:37:38;99767.94;;;16.44;96.81
72612;BME280;60655;52.182;4.474;2023-08-01T01:39:39;99762.59;;;16.39;97.57
72612;BME280;60655;52.182;4.474;2023-08-01T01:41:40;99754.41;;;16.25;99.21
72612;BME280;60655;52.182;4.474;2023-08-01T01:43:41;99753.63;;;16.19;100.00
72612;BME280;60655;52.182;4.474;2023-08-01T01:45:42;99749.31;;;16.24;100.00
72612;BME280;60655;52.182;4.474;2023-08-01T01:47:43;99738.06;;;16.21;100.00
72612;BME280;60655;52.182;4.474;2023-08-01T01:49:44;99747.69;;;16.28;100.00
72612;BME280;60655;52.182;4.474;2023-08-01T01:51:45;99741.25;;;16.29;100.00
72612;BME280;60655;52.182;4.474;2023-08-01T01:53:46;99742.59;;;16.26;100.00
72612;BME280;60655;52.182;4.474;2023-08-01T01:55:47;99736.47;;;16.20;100.00
72612;BME280;60655;52.182;4.474;2023-08-01T01:57:48;99740.69;;;16.32;100.00
72612;BME280;60655;52.182;4.474;2023-08-01T01:59:49;99739.56;;;16.38;100.00
72612;BME280;60655;52.182;4.474;2023-08-01T02:01:50;99737.44;;;16.35;100.00
72612;BME280;60655;52.182;4.474;2023-08-01T02:03:51;99741.94;;;16.44;100.00
72612;BME280;60655;52.182;4.474;2023-08-01T02:05:52;99742.50;;;16.41;100.00
72612;BME280;60655;52.182;4.474;2023-08-01T02:07:53;99742.50;;;16.41;100.00
72612;BME280;60655;52.182;4.474;2023-08-01T02:09:53;99732.56;;;16.42;100.00
72612;BME280;60655;52.182;4.474;2023-08-01T02:11:54;99737.41;;;16.40;100.00
72612;BME280;60655;52.182;4.474;2023-08-01T02:13:55;99726.72;;;16.35;100.00
72612;BME280;60655;52.182;4.474;2023-08-01T02:15:57;99720.81;;;16.38;100.00
72612;BME280;60655;52.182;4.474;2023-08-01T02:17:57;99739.53;;;16.43;100.00
72612;BME280;60655;52.182;4.474;2023-08-01T02:19:58;99739.75;;;16.46;100.00
72612;BME280;60655;52.182;4.474;2023-08-01T02:21:59;99721.03;;;16.41;100.00
72612;BME280;60655;52.182;4.474;2023-08-01T02:24:00;99737.56;;;16.48;100.00
72612;BME280;60655;52.182;4.474;2023-08-01T02:26:01;99733.53;;;16.51;100.00
72612;BME280;60655;52.182;4.474;2023-08-01T02:28:02;99729.78;;;16.52;100.00
72612;BME280;60655;52.182;4.474;2023-08-01T02:30:04;99730.34;;;16.49;100.00
72612;BME280;60655;52.182;4.474;2023-08-01T02:32:06;99732.19;;;16.53;100.00
72612;BME280;60655;52.182;4.474;2023-08-01T02:34:07;99731.38;;;16.53;100.00
72612;BME280;60655;52.182;4.474;2023-08-01T02:36:08;99727.34;;;16.55;100.00
72612;BME280;60655;52.182;4.474;2023-08-01T02:38:09;99730.56;;;16.52;100.00
72612;BME280;60655;52.182;4.474;2023-08-01T02:40:10;99728.16;;;16.51;100.00
72612;BME280;60655;52.182;4.474;2023-08-01T02:42:11;99727.84;;;16.58;100.00
72612;BME280;60655;52.182;4.474;2023-08-01T02:44:12;99724.94;;;16.54;100.00
72612;BME280;60655;52.182;4.474;2023-08-01T02:46:13;99733.44;;;16.61;100.00
72612;BME280;60655;52.182;4.474;2023-08-01T02:48:14;99735.09;;;16.57;100.00
72612;BME280;60655;52.182;4.474;2023-08-01T02:50:15;99742.06;;;16.58;100.00
72612;BME280;60655;52.182;4.474;2023-08-01T02:52:16;99738.84;;;16.56;100.00
72612;BME280;60655;52.182;4.474;2023-08-01T02:54:17;99741.25;;;16.58;100.00
72612;BME280;60655;52.182;4.474;2023-08-01T02:56:18;99738.81;;;16.61;100.00
72612;BME280;60655;52.182;4.474;2023-08-01T02:58:19;99730.81;;;16.56;100.00
72612;BME280;60655;52.182;4.474;2023-08-01T03:00:20;99725.94;;;16.63;100.00
72612;BME280;60655;52.182;4.474;2023-08-01T03:02:21;99747.09;;;16.70;100.00
72612;BME280;60655;52.182;4.474;2023-08-01T03:04:22;99736.34;;;16.70;100.00
72612;BME280;60655;52.182;4.474;2023-08-01T03:06:23;99738.25;;;16.69;100.00
72612;BME280;60655;52.182;4.474;2023-08-01T03:08:24;99727.28;;;16.66;100.00
72612;BME280;60655;52.182;4.474;2023-08-01T03:10:25;99725.94;;;16.63;100.00
72612;BME280;60655;52.182;4.474;2023-08-01T03:12:26;99742.44;;;16.75;100.00
72612;BME280;60655;52.182;4.474;2023-08-01T03:14:27;99739.72;;;16.80;100.00
72612;BME280;60655;52.182;4.474;2023-08-01T03:16:28;99739.03;;;16.70;100.00
72612;BME280;60655;52.182;4.474;2023-08-01T03:18:29;99739.28;;;16.73;100.00
72612;BME280;60655;52.182;4.474;2023-08-01T03:20:30;99736.88;;;16.72;100.00
72612;BME280;60655;52.182;4.474;2023-08-01T03:22:31;99740.41;;;16.67;100.00
72612;BME280;60655;52.182;4.474;2023-08-01T03:24:32;99739.56;;;16.72;100.00
72612;BME280;60655;52.182;4.474;2023-08-01T03:26:35;99745.13;;;16.75;100.00
72612;BME280;60655;52.182;4.474;2023-08-01T03:28:36;99749.38;;;16.81;100.00
72612;BME280;60655;52.182;4.474;2023-08-01T03:30:37;99738.91;;;16.80;100.00
72612;BME280;60655;52.182;4.474;2023-08-01T03:32:38;99736.59;;;16.73;100.00
72612;BME280;60655;52.182;4.474;2023-08-01T03:34:39;99742.44;;;16.75;100.00
72612;BME280;60655;52.182;4.474;2023-08-01T03:36:41;99747.53;;;16.77;100.00
72612;BME280;60655;52.182;4.474;2023-08-01T03:38:43;99738.63;;;16.81;98.52
72612;BME280;60655;52.182;4.474;2023-08-01T03:40:46;99746.16;;;16.79;98.42
72612;BME280;60655;52.182;4.474;2023-08-01T03:42:47;99722.66;;;16.71;97.56
72612;BME280;60655;52.182;4.474;2023-08-01T03:44:49;99721.63;;;16.67;97.97
72612;BME280;60655;52.182;4.474;2023-08-01T03:46:50;99749.88;;;16.83;97.99
72612;BME280;60655;52.182;4.474;2023-08-01T03:48:51;99749.59;;;16.85;98.15
72612;BME280;60655;52.182;4.474;2023-08-01T03:50:51;99749.31;;;16.86;97.76
72612;BME280;60655;52.182;4.474;2023-08-01T03:52:52;99745.59;;;16.82;99.33
72612;BME280;60655;52.182;4.474;2023-08-01T03:54:54;99747.72;;;16.85;99.62
72612;BME280;60655;52.182;4.474;2023-08-01T03:56:55;99758.97;;;16.87;99.31
72612;BME280;60655;52.182;4.474;2023-08-01T03:58:57;99752.56;;;16.83;100.00
72612;BME280;60655;52.182;4.474;2023-08-01T04:00:58;99747.53;;;16.77;100.00
72612;BME280;60655;52.182;4.474;2023-08-01T04:02:59;99740.56;;;16.76;98.92
72612;BME280;60655;52.182;4.474;2023-08-01T04:05:00;99749.94;;;16.78;98.28
72612;BME280;60655;52.182;4.474;2023-08-01T04:07:01;99748.28;;;16.82;98.19
72612;BME280;60655;52.182;4.474;2023-08-01T04:09:02;99735.44;;;16.79;97.72
72612;BME280;60655;52.182;4.474;2023-08-01T04:11:03;99749.38;;;16.81;97.77
72612;BME280;60655;52.182;4.474;2023-08-01T04:13:04;99754.44;;;16.83;95.63
72612;BME280;60655;52.182;4.474;2023-08-01T04:15:06;99745.13;;;16.75;95.98
72612;BME280;60655;52.182;4.474;2023-08-01T04:17:07;99752.06;;;16.81;95.53
72612;BME280;60655;52.182;4.474;2023-08-01T04:19:08;99752.84;;;16.82;94.36
72612;BME280;60655;52.182;4.474;2023-08-01T04:21:09;99750.44;;;16.80;94.85
72612;BME280;60655;52.182;4.474;2023-08-01T04:23:10;99734.72;;;16.74;94.94
72612;BME280;60655;52.182;4.474;2023-08-01T04:25:10;99753.66;;;16.82;96.26
72612;BME280;60655;52.182;4.474;2023-08-01T04:27:11;99749.38;;;16.81;97.27
72612;BME280;60655;52.182;4.474;2023-08-01T04:29:12;99747.25;;;16.78;96.41
72612;BME280;60655;52.182;4.474;2023-08-01T04:31:16;99758.50;;;16.80;96.30
72612;BME280;60655;52.182;4.474;2023-08-01T04:33:17;99752.16;;;16.71;96.32
72612;BME280;60655;52.182;4.474;2023-08-01T04:35:18;99754.28;;;16.74;95.03
72612;BME280;60655;52.182;4.474;2023-08-01T04:37:19;99752.44;;;16.70;94.92
72612;BME280;60655;52.182;4.474;2023-08-01T04:39:23;99753.69;;;16.77;95.60
72612;BME280;60655;52.182;4.474;2023-08-01T04:41:24;99753.41;;;16.79;96.22
72612;BME280;60655;52.182;4.474;2023-08-01T04:43:25;99749.13;;;16.78;95.10
72612;BME280;60655;52.182;4.474;2023-08-01T04:45:26;99751.00;;;16.77;95.22
72612;BME280;60655;52.182;4.474;2023-08-01T04:47:27;99756.84;;;16.84;95.86
72612;BME280;60655;52.182;4.474;2023-08-01T04:49:28;99748.34;;;16.77;95.92
72612;BME280;60655;52.182;4.474;2023-08-01T04:51:29;99746.16;;;16.79;94.32
72612;BME280;60655;52.182;4.474;2023-08-01T04:53:30;99761.97;;;16.81;93.08
72612;BME280;60655;52.182;4.474;2023-08-01T04:55:31;99757.13;;;16.83;93.63
72612;BME280;60655;52.182;4.474;2023-08-01T04:57:32;99760.06;;;16.86;92.70
72612;BME280;60655;52.182;4.474;2023-08-01T04:59:33;99764.34;;;16.87;93.14
72612;BME280;60655;52.182;4.474;2023-08-01T05:01:34;99716.31;;;16.57;93.72
72612;BME280;60655;52.182;4.474;2023-08-01T05:03:35;99744.84;;;16.77;94.32
72612;BME280;60655;52.182;4.474;2023-08-01T05:05:36;99750.44;;;16.80;93.02
72612;BME280;60655;52.182;4.474;2023-08-01T05:07:37;99759.81;;;16.83;93.23
72612;BME280;60655;52.182;4.474;2023-08-01T05:09:38;99747.59;;;16.72;94.07
72612;BME280;60655;52.182;4.474;2023-08-01T05:11:39;99765.97;;;16.83;93.51
72612;BME280;60655;52.182;4.474;2023-08-01T05:13:40;99759.31;;;16.81;93.99
72612;BME280;60655;52.182;4.474;2023-08-01T05:15:43;99736.25;;;16.80;93.94
72612;BME280;60655;52.182;4.474;2023-08-01T05:17:44;99753.09;;;16.85;92.57
72612;BME280;60655;52.182;4.474;2023-08-01T05:19:45;99758.44;;;16.85;93.38
72612;BME280;60655;52.182;4.474;2023-08-01T05:21:46;99760.34;;;16.85;90.67
72612;BME280;60655;52.182;4.474;2023-08-01T05:23:47;99754.16;;;16.84;91.93
72612;BME280;60655;52.182;4.474;2023-08-01T05:25:48;99758.25;;;16.77;90.01
72612;BME280;60655;52.182;4.474;2023-08-01T05:27:49;99758.50;;;16.80;90.82
72612;BME280;60655;52.182;4.474;2023-08-01T05:29:50;99762.78;;;16.81;89.51
72612;BME280;60655;52.182;4.474;2023-08-01T05:31:51;99761.13;;;16.85;89.14
72612;BME280;60655;52.182;4.474;2023-08-01T05:33:52;99758.63;;;16.94;89.00
72612;BME280;60655;52.182;4.474;2023-08-01T05:35:53;99750.19;;;17.06;88.49
72612;BME280;60655;52.182;4.474;2023-08-01T05:37:54;99772.13;;;17.13;87.86
72612;BME280;60655;52.182;4.474;2023-08-01T05:39:55;99765.03;;;17.22;88.79
72612;BME280;60655;52.182;4.474;2023-08-01T05:41:56;99764.81;;;17.18;87.64
72612;BME280;60655;52.182;4.474;2023-08-01T05:43:58;99764.25;;;17.21;87.23
72612;BME280;60655;52.182;4.474;2023-08-01T05:45:59;99771.16;;;17.28;86.00
72612;BME280;60655;52.182;4.474;2023-08-01T05:48:00;99777.56;;;17.32;87.03
72612;BME280;60655;52.182;4.474;2023-08-01T05:50:02;99777.56;;;17.32;86.48
72612;BME280;60655;52.182;4.474;2023-08-01T05:52:03;99782.78;;;17.42;86.42
72612;BME280;60655;52.182;4.474;2023-08-01T05:54:04;99780.16;;;17.37;86.39
72612;BME280;60655;52.182;4.474;2023-08-01T05:56:05;99777.56;;;17.32;87.13
72612;BME280;60655;52.182;4.474;2023-08-01T05:58:06;99782.78;;;17.42;88.02
72612;BME280;60655;52.182;4.474;2023-08-01T06:00:07;99776.53;;;17.28;88.06
72612;BME280;60655;52.182;4.474;2023-08-01T06:02:08;99781.09;;;17.27;87.58
72612;BME280;60655;52.182;4.474;2023-08-01T06:04:09;99780.63;;;17.20;87.16
72612;BME280;60655;52.182;4.474;2023-08-01T06:06:11;99785.78;;;17.16;88.49
72612;BME280;60655;52.182;4.474;2023-08-01T06:08:12;99778.22;;;17.18;88.66
72612;BME280;60655;52.182;4.474;2023-08-01T06:10:14;99790.66;;;17.33;88.05
72612;BME280;60655;52.182;4.474;2023-08-01T06:12:14;99782.94;;;17.32;88.01
72612;BME280;60655;52.182;4.474;2023-08-01T06:14:15;99792.13;;;17.26;88.77
72612;BME280;60655;52.182;4.474;2023-08-01T06:16:17;99782.06;;;17.36;88.29
72612;BME280;60655;52.182;4.474;2023-08-01T06:18:18;99792.16;;;17.44;88.86
72612;BME280;60655;52.182;4.474;2023-08-01T06:20:19;99793.47;;;17.47;88.31
72612;BME280;60655;52.182;4.474;2023-08-01T06:22:20;99796.16;;;17.47;88.11
72612;BME280;60655;52.182;4.474;2023-08-01T06:24:21;99797.81;;;17.43;88.39
72612;BME280;60655;52.182;4.474;2023-08-01T06:26:22;99800.28;;;17.39;88.91
72612;BME280;60655;52.182;4.474;2023-08-01T06:28:23;99799.38;;;17.49;89.08
72612;BME280;60655;52.182;4.474;2023-08-01T06:30:24;99795.47;;;17.60;89.56
72612;BME280;60655;52.182;4.474;2023-08-01T06:32:25;99803.47;;;17.65;88.82
72612;BME280;60655;52.182;4.474;2023-08-01T06:34:25;99786.91;;;17.58;87.65
72612;BME280;60655;52.182;4.474;2023-08-01T06:36:26;99795.13;;;17.67;87.73
72612;BME280;60655;52.182;4.474;2023-08-01T06:38:27;99800.53;;;17.62;86.99
72612;BME280;60655;52.182;4.474;2023-08-01T06:40:28;99796.84;;;17.58;87.81
72612;BME280;60655;52.182;4.474;2023-08-01T06:42:29;99804.09;;;17.57;87.53
72612;BME280;60655;52.182;4.474;2023-08-01T06:44:30;99812.97;;;17.58;87.32
72612;BME280;60655;52.182;4.474;2023-08-01T06:46:31;99811.19;;;17.48;87.42
72612;BME280;60655;52.182;4.474;2023-08-01T06:48:32;99811.47;;;17.46;87.11
72612;BME280;60655;52.182;4.474;2023-08-01T06:50:36;99804.28;;;17.42;87.43
72612;BME280;60655;52.182;4.474;2023-08-01T06:52:37;99815.06;;;17.37;88.03
72612;BME280;60655;52.182;4.474;2023-08-01T06:54:38;99809.97;;;17.35;85.80
72612;BME280;60655;52.182;4.474;2023-08-01T06:56:40;99808.97;;;17.31;85.40
72612;BME280;60655;52.182;4.474;2023-08-01T06:58:43;99808.84;;;17.41;85.04
72612;BME280;60655;52.182;4.474;2023-08-01T07:00:44;99819.72;;;17.55;84.70
72612;BME280;60655;52.182;4.474;2023-08-01T07:02:46;99811.88;;;17.59;85.19
72612;BME280;60655;52.182;4.474;2023-08-01T07:04:47;99817.41;;;17.67;85.10
72612;BME280;60655;52.182;4.474;2023-08-01T07:06:48;99816.16;;;17.83;85.74
72612;BME280;60655;52.182;4.474;2023-08-01T07:08:49;99826.75;;;17.94;84.29
72612;BME280;60655;52.182;4.474;2023-08-01T07:10:50;99824.50;;;17.82;83.78
72612;BME280;60655;52.182;4.474;2023-08-01T07:12:51;99843.59;;;17.80;83.33
72612;BME280;60655;52.182;4.474;2023-08-01T07:14:52;99831.41;;;17.88;84.37
72612;BME280;60655;52.182;4.474;2023-08-01T07:16:53;99826.25;;;17.92;84.97
72612;BME280;60655;52.182;4.474;2023-08-01T07:18:55;99830.69;;;18.01;84.46
72612;BME280;60655;52.182;4.474;2023-08-01T07:21:02;99826.91;;;18.02;83.58
72612;BME280;60655;52.182;4.474;2023-08-01T07:23:03;99821.25;;;17.85;83.28
72612;BME280;60655;52.182;4.474;2023-08-01T07:25:05;99827.03;;;17.73;81.50
72612;BME280;60655;52.182;4.474;2023-08-01T07:27:06;99832.09;;;17.75;81.95
72612;BME280;60655;52.182;4.474;2023-08-01T07:29:07;99838.56;;;17.74;82.12
72612;BME280;60655;52.182;4.474;2023-08-01T07:31:09;99845.84;;;17.92;82.33
72612;BME280;60655;52.182;4.474;2023-08-01T07:33:10;99848.75;;;17.96;82.10
72612;BME280;60655;52.182;4.474;2023-08-01T07:35:11;99858.00;;;17.90;82.48
72612;BME280;60655;52.182;4.474;2023-08-01T07:37:13;99850.66;;;17.95;83.18
72612;BME280;60655;52.182;4.474;2023-08-01T07:39:15;99848.53;;;17.92;83.69
72612;BME280;60655;52.182;4.474;2023-08-01T07:41:16;99854.75;;;18.30;83.27
72612;BME280;60655;52.182;4.474;2023-08-01T07:43:17;99849.38;;;18.30;81.29
72612;BME280;60655;52.182;4.474;2023-08-01T07:45:18;99840.00;;;18.28;81.16
72612;BME280;60655;52.182;4.474;2023-08-01T07:47:20;99845.38;;;18.46;82.43
72612;BME280;60655;52.182;4.474;2023-08-01T07:49:21;99850.09;;;18.36;80.15
72612;BME280;60655;52.182;4.474;2023-08-01T07:51:22;99867.53;;;18.19;81.42
72612;BME280;60655;52.182;4.474;2023-08-01T07:53:23;99849.50;;;18.20;82.53
72612;BME280;60655;52.182;4.474;2023-08-01T07:55:24;99862.59;;;18.08;83.07
72612;BME280;60655;52.182;4.474;2023-08-01T07:57:24;99862.94;;;18.20;82.43
72612;BME280;60655;52.182;4.474;2023-08-01T07:59:25;99865.63;;;18.01;82.01
72612;BME280;60655;52.182;4.474;2023-08-01T08:01:26;99867.44;;;18.06;82.68
72612;BME280;60655;52.182;4.474;2023-08-01T08:03:27;99871.97;;;18.10;81.93
72612;BME280;60655;52.182;4.474;2023-08-01T08:05:28;99868.03;;;18.03;80.69
72612;BME280;60655;52.182;4.474;2023-08-01T08:07:29;99864.19;;;17.90;80.75
72612;BME280;60655;52.182;4.474;2023-08-01T08:09:30;99868.81;;;17.84;83.55
72612;BME280;60655;52.182;4.474;2023-08-01T08:11:31;99874.97;;;17.61;87.54
72612;BME280;60655;52.182;4.474;2023-08-01T08:13:32;99875.06;;;17.51;89.19
72612;BME280;60655;52.182;4.474;2023-08-01T08:15:33;99861.63;;;17.27;90.08
72612;BME280;60655;52.182;4.474;2023-08-01T08:17:35;99874.41;;;17.35;91.02
72612;BME280;60655;52.182;4.474;2023-08-01T08:19:36;99887.28;;;17.38;90.75
72612;BME280;60655;52.182;4.474;2023-08-01T08:21:37;99873.88;;;17.33;89.29
72612;BME280;60655;52.182;4.474;2023-08-01T08:23:38;99879.84;;;17.30;89.83
72612;BME280;60655;52.182;4.474;2023-08-01T08:25:40;99880.44;;;17.51;90.42
72612;BME280;60655;52.182;4.474;2023-08-01T08:27:41;99878.31;;;17.48;87.92
72612;BME280;60655;52.182;4.474;2023-08-01T08:29:42;99878.28;;;17.53;88.16
72612;BME280;60655;52.182;4.474;2023-08-01T08:31:43;99878.84;;;17.50;87.55
72612;BME280;60655;52.182;4.474;2023-08-01T08:33:44;99885.28;;;17.49;88.30
72612;BME280;60655;52.182;4.474;2023-08-01T08:35:45;99886.59;;;17.51;87.59
72612;BME280;60655;52.182;4.474;2023-08-01T08:37:46;99892.53;;;17.48;87.88
72612;BME280;60655;52.182;4.474;2023-08-01T08:39:47;99885.34;;;17.44;87.20
72612;BME280;60655;52.182;4.474;2023-08-01T08:41:50;99882.97;;;17.37;88.30
72612;BME280;60655;52.182;4.474;2023-08-01T08:43:56;99886.84;;;17.55;88.87
72612;BME280;60655;52.182;4.474;2023-08-01T08:46:00;99896.13;;;17.68;87.79
72612;BME280;60655;52.182;4.474;2023-08-01T08:48:04;99891.78;;;17.72;86.53
72612;BME280;60655;52.182;4.474;2023-08-01T08:50:10;99893.06;;;17.98;86.28
72612;BME280;60655;52.182;4.474;2023-08-01T08:52:12;99900.44;;;18.11;84.50
72612;BME280;60655;52.182;4.474;2023-08-01T08:54:15;99901.53;;;18.10;84.01
72612;BME280;60655;52.182;4.474;2023-08-01T08:56:16;99898.34;;;18.27;83.49
72612;BME280;60655;52.182;4.474;2023-08-01T08:58:18;99892.78;;;18.42;81.20
72612;BME280;60655;52.182;4.474;2023-08-01T09:00:19;99897.56;;;18.45;80.68
72612;BME280;60655;52.182;4.474;2023-08-01T09:02:20;99901.41;;;18.58;79.63
72612;BME280;60655;52.182;4.474;2023-08-01T09:04:22;99910.50;;;18.43;79.88
72612;BME280;60655;52.182;4.474;2023-08-01T09:06:24;99902.19;;;18.59;80.10
72612;BME280;60655;52.182;4.474;2023-08-01T09:08:32;99906.38;;;18.70;79.42
72612;BME280;60655;52.182;4.474;2023-08-01T09:10:35;99913.06;;;18.72;78.66
72612;BME280;60655;52.182;4.474;2023-08-01T09:12:36;99913.47;;;18.98;79.04
72612;BME280;60655;52.182;4.474;2023-08-01T09:14:37;99914.28;;;18.99;77.38
72612;BME280;60655;52.182;4.474;2023-08-01T09:16:40;99908.59;;;18.81;76.73
72612;BME280;60655;52.182;4.474;2023-08-01T09:18:49;99902.94;;;18.83;76.54
72612;BME280;60655;52.182;4.474;2023-08-01T09:20:50;99908.81;;;18.85;77.06
72612;BME280;60655;52.182;4.474;2023-08-01T09:22:51;99910.50;;;18.81;77.55
72612;BME280;60655;52.182;4.474;2023-08-01T09:24:52;99913.06;;;18.72;78.28
72612;BME280;60655;52.182;4.474;2023-08-01T09:27:02;99915.75;;;18.72;77.36
72612;BME280;60655;52.182;4.474;2023-08-01T09:29:04;99925.75;;;19.04;77.68
72612;BME280;60655;52.182;4.474;2023-08-01T09:31:06;99922.72;;;19.25;75.73
72612;BME280;60655;52.182;4.474;2023-08-01T09:33:08;99915.88;;;19.00;75.78
72612;BME280;60655;52.182;4.474;2023-08-01T09:35:10;99907.50;;;18.82;77.04
72612;BME280;60655;52.182;4.474;2023-08-01T09:37:11;99883.38;;;18.59;78.74
72612;BME280;60655;52.182;4.474;2023-08-01T09:39:20;99934.44;;;18.82;79.16
72612;BME280;60655;52.182;4.474;2023-08-01T09:41:21;99932.38;;;18.93;76.47
72612;BME280;60655;52.182;4.474;2023-08-01T09:43:46;99924.97;;;19.17;77.90
72612;BME280;60655;52.182;4.474;2023-08-01T09:45:54;99944.69;;;19.45;76.83
72612;BME280;60655;52.182;4.474;2023-08-01T09:47:56;99942.88;;;19.27;76.38
72612;BME280;60655;52.182;4.474;2023-08-01T09:49:58;99924.19;;;19.17;76.39
72612;BME280;60655;52.182;4.474;2023-08-01T09:51:59;99919.75;;;19.07;76.09
72612;BME280;60655;52.182;4.474;2023-08-01T09:54:08;99924.34;;;19.07;75.83
72612;BME280;60655;52.182;4.474;2023-08-01T09:56:09;99940.50;;;19.07;76.63
72612;BME280;60655;52.182;4.474;2023-08-01T09:58:13;99947.28;;;19.04;75.00
72612;BME280;60655;52.182;4.474;2023-08-01T10:00:17;99943.16;;;19.26;76.71
72612;BME280;60655;52.182;4.474;2023-08-01T10:02:19;99936.03;;;18.83;76.26
72612;BME280;60655;52.182;4.474;2023-08-01T10:04:26;99945.72;;;18.66;77.95
72612;BME280;60655;52.182;4.474;2023-08-01T10:06:32;99962.72;;;18.80;78.06
72612;BME280;60655;52.182;4.474;2023-08-01T10:08:34;99957.16;;;18.76;77.12
72612;BME280;60655;52.182;4.474;2023-08-01T10:10:37;99953.97;;;19.07;76.63
72612;BME280;60655;52.182;4.474;2023-08-01T10:12:39;99945.72;;;19.17;74.95
72612;BME280;60655;52.182;4.474;2023-08-01T10:14:43;99951.59;;;18.86;76.03
72612;BME280;60655;52.182;4.474;2023-08-01T10:16:45;99965.50;;;18.75;75.37
72612;BME280;60655;52.182;4.474;2023-08-01T10:18:46;99928.44;;;18.29;76.54
72612;BME280;60655;52.182;4.474;2023-08-01T10:20:48;99966.44;;;18.65;77.74
72612;BME280;60655;52.182;4.474;2023-08-01T10:22:50;99911.69;;;18.75;75.44
72612;BME280;60655;52.182;4.474;2023-08-01T10:24:52;99961.16;;;19.44;74.90
72612;BME280;60655;52.182;4.474;2023-08-01T10:26:55;99967.63;;;19.62;73.08
72612;BME280;60655;52.182;4.474;2023-08-01T10:28:56;99943.41;;;19.10;73.97
72612;BME280;60655;52.182;4.474;2023-08-01T10:31:14;99960.94;;;18.75;75.68
72612;BME280;60655;52.182;4.474;2023-08-01T10:33:16;99958.66;;;18.82;76.14
72612;BME280;60655;52.182;4.474;2023-08-01T10:35:17;99966.47;;;19.16;76.75
72612;BME280;60655;52.182;4.474;2023-08-01T10:37:18;99953.88;;;19.12;75.01
72612;BME280;60655;52.182;4.474;2023-08-01T10:39:21;99967.13;;;19.08;74.52
72612;BME280;60655;52.182;4.474;2023-08-01T10:41:31;99970.31;;;19.29;73.81